コペンハーゲン の空港の天気 - METARとTAF

コペンハーゲン国際空港 ( EKCH / CPH ) - デンマーク コペンハーゲン
飛行場実況気象(Metar)
観測時間10/19 20:20 CEST (10/19 18:20 UTC)
風向・風速西 3m/s
視程10km以上
天気現象
少しの雲 雲底高度 1100m
全天の8割程度の雲 雲底高度 1220m
気温10℃
湿度82%
気圧1025hPa
METAREKCH 191820Z 26006KT 9999 FEW036 BKN040 10/07 Q1025 NOSIG
過去の天気等 Google飛行場航空写真 Wunderground天気予報

過去48時間のMETAR

飛行場予報(TAF)
発表時間: 10/19 19:01 CEST (10/19 17:01 UTC)
予報対象時間: 19日20時 CEST ~ 20日20時 CEST
風向・風速西北西 4m/s
視程10km以上
全天の4割程度の雲 雲底高度 910m
20日8時 CEST ~ 20日12時 CEST に一時的に
全天の8割程度の雲 雲底高度 370m
TAF EKCH 191701Z 1918/2018 30008KT 9999 SCT030
TEMPO 2006/2010 BKN012